Time;durP1;ratioP1;P1;durP2;ratioP2;P2;SDS_P1;SDS_P2;PMS_P1;PMS_P2;Temp;Humidity;BMP_temperature;BMP_pressure;BME280_temperature;BME280_humidity;BME280_pressure;Samples;Min_cycle;Max_cycle;Signal;HPM_P1;HPM_P2
2021/08/15 00:01:13;;;;;;;9.65;6.53;;;;;;;;;;5075155;28;20074;-69
2021/08/15 00:03:39;;;;;;;8.45;6.47;;;;;;;;;;5077375;28;20127;-72
2021/08/15 00:06:06;;;;;;;8.80;6.47;;;;;;;;;;5073872;28;20149;-70
2021/08/15 00:08:32;;;;;;;8.85;6.57;;;;;;;;;;5075910;28;20380;-69
2021/08/15 00:10:58;;;;;;;10.88;6.80;;;;;;;;;;5075285;28;20384;-71
2021/08/15 00:13:24;;;;;;;9.68;6.05;;;;;;;;;;5075996;28;20630;-73
2021/08/15 00:15:51;;;;;;;6.78;6.18;;;;;;;;;;5071542;28;20535;-73
2021/08/15 00:18:17;;;;;;;7.43;5.85;;;;;;;;;;5075486;28;20039;-69
2021/08/15 00:20:43;;;;;;;8.82;6.10;;;;;;;;;;5076696;28;20025;-68
2021/08/15 00:23:09;;;;;;;7.82;6.38;;;;;;;;;;5075050;28;20031;-70
2021/08/15 00:25:36;;;;;;;8.20;6.22;;;;;;;;;;5075530;28;20416;-69
2021/08/15 00:28:02;;;;;;;10.25;6.15;;;;;;;;;;5074671;28;20024;-69
2021/08/15 00:30:28;;;;;;;9.65;6.60;;;;;;;;;;5075020;28;20027;-69
2021/08/15 00:32:54;;;;;;;7.95;5.65;;;;;;;;;;5078087;28;20032;-69
2021/08/15 00:35:20;;;;;;;6.75;6.05;;;;;;;;;;5074176;28;20533;-69
2021/08/15 00:37:46;;;;;;;9.10;6.03;;;;;;;;;;5076139;28;20028;-72
2021/08/15 00:40:13;;;;;;;9.90;6.07;;;;;;;;;;5075304;28;20094;-69
2021/08/15 00:42:39;;;;;;;7.90;6.15;;;;;;;;;;5074485;28;20016;-69
2021/08/15 00:45:05;;;;;;;7.32;6.13;;;;;;;;;;5074950;28;20753;-70
2021/08/15 00:47:32;;;;;;;7.97;6.65;;;;;;;;;;5078421;28;20031;-69
2021/08/15 00:50:01;;;;;;;8.88;6.63;;;;;;;;;;5073439;28;20028;-68
2021/08/15 00:52:28;;;;;;;11.32;6.40;;;;;;;;;;5074330;28;20043;-68
2021/08/15 00:54:56;;;;;;;15.80;7.50;;;;;;;;;;5075177;28;20115;-68
2021/08/15 00:57:25;;;;;;;14.32;7.47;;;;;;;;;;5075927;28;20012;-71
2021/08/15 00:59:51;;;;;;;12.73;7.35;;;;;;;;;;5074417;28;20374;-69
2021/08/15 01:02:17;;;;;;;7.53;6.68;;;;;;;;;;5072511;28;20496;-71
2021/08/15 01:04:43;;;;;;;8.80;7.40;;;;;;;;;;5072279;28;20114;-70
2021/08/15 01:07:09;;;;;;;12.80;7.22;;;;;;;;;;5073691;28;20032;-73
2021/08/15 01:09:36;;;;;;;10.07;6.85;;;;;;;;;;5074811;28;20032;-69
2021/08/15 01:12:03;;;;;;;10.38;7.40;;;;;;;;;;5076333;28;20016;-69
2021/08/15 01:14:29;;;;;;;13.13;7.82;;;;;;;;;;5075173;28;20031;-69
2021/08/15 01:16:55;;;;;;;10.48;7.75;;;;;;;;;;5075225;28;20035;-70
2021/08/15 01:19:28;;;;;;;9.10;7.50;;;;;;;;;;5076717;28;20044;-69
2021/08/15 01:21:54;;;;;;;8.82;7.07;;;;;;;;;;5073450;28;20086;-69
2021/08/15 01:24:20;;;;;;;9.90;7.53;;;;;;;;;;5076020;28;20039;-71
2021/08/15 01:26:47;;;;;;;12.93;7.65;;;;;;;;;;5072918;28;20023;-69
2021/08/15 01:29:13;;;;;;;10.57;7.65;;;;;;;;;;5073939;28;20032;-70
2021/08/15 01:31:39;;;;;;;14.40;7.60;;;;;;;;;;5078063;28;20036;-68
2021/08/15 01:34:05;;;;;;;11.23;7.53;;;;;;;;;;5073770;28;20036;-72
2021/08/15 01:36:31;;;;;;;13.57;7.60;;;;;;;;;;5076809;28;20472;-68
2021/08/15 01:38:57;;;;;;;10.63;7.85;;;;;;;;;;5071675;28;20071;-69
2021/08/15 01:41:24;;;;;;;8.38;7.03;;;;;;;;;;5074826;28;20389;-73
2021/08/15 01:43:51;;;;;;;9.50;7.55;;;;;;;;;;5075806;28;20020;-69
2021/08/15 01:46:18;;;;;;;10.05;7.82;;;;;;;;;;5073502;28;20388;-69
2021/08/15 01:48:45;;;;;;;7.63;6.85;;;;;;;;;;5076563;28;20032;-70
2021/08/15 01:51:11;;;;;;;9.55;6.95;;;;;;;;;;5068521;28;20572;-69
2021/08/15 01:53:37;;;;;;;8.13;7.32;;;;;;;;;;5074599;28;20028;-71
2021/08/15 01:56:04;;;;;;;9.88;7.70;;;;;;;;;;5072832;28;20025;-68
2021/08/15 01:58:30;;;;;;;10.45;7.20;;;;;;;;;;5075857;28;20387;-68
2021/08/15 02:00:56;;;;;;;7.70;6.90;;;;;;;;;;5073964;28;20476;-70
2021/08/15 02:03:22;;;;;;;8.02;7.07;;;;;;;;;;5073168;28;20035;-71
2021/08/15 02:05:49;;;;;;;10.27;7.40;;;;;;;;;;5074418;28;20024;-69
2021/08/15 02:08:15;;;;;;;9.02;7.13;;;;;;;;;;5072539;28;20098;-69
2021/08/15 02:10:42;;;;;;;9.68;6.90;;;;;;;;;;5074111;28;20426;-68
2021/08/15 02:13:08;;;;;;;9.15;6.60;;;;;;;;;;5072775;28;20040;-68
2021/08/15 02:15:35;;;;;;;7.70;6.70;;;;;;;;;;5072978;28;20028;-72
2021/08/15 02:18:01;;;;;;;7.53;6.32;;;;;;;;;;5076316;28;20027;-68
2021/08/15 02:20:28;;;;;;;11.10;6.60;;;;;;;;;;5074298;28;20031;-71
2021/08/15 02:22:54;;;;;;;7.97;7.03;;;;;;;;;;5074614;28;20065;-71
2021/08/15 02:25:21;;;;;;;7.68;6.30;;;;;;;;;;5073070;28;20364;-70
2021/08/15 02:27:47;;;;;;;7.57;6.78;;;;;;;;;;5074706;28;20021;-68
2021/08/15 02:30:15;;;;;;;8.70;6.90;;;;;;;;;;5074589;28;20024;-68
2021/08/15 02:32:41;;;;;;;10.23;7.32;;;;;;;;;;5077096;28;20029;-69
2021/08/15 02:35:08;;;;;;;10.18;7.05;;;;;;;;;;5073872;28;20038;-69
2021/08/15 02:37:35;;;;;;;8.55;6.70;;;;;;;;;;5075465;28;20020;-68
2021/08/15 02:40:01;;;;;;;7.20;6.50;;;;;;;;;;5068958;28;20017;-68
2021/08/15 02:42:31;;;;;;;7.35;6.65;;;;;;;;;;5070962;28;20121;-68
2021/08/15 02:44:57;;;;;;;7.88;7.07;;;;;;;;;;5074913;28;20106;-72
2021/08/15 02:47:24;;;;;;;9.55;6.70;;;;;;;;;;5072816;28;20074;-68
2021/08/15 02:49:50;;;;;;;7.93;6.72;;;;;;;;;;5072051;28;20043;-71
2021/08/15 02:52:16;;;;;;;6.95;6.32;;;;;;;;;;5071292;28;20023;-68
2021/08/15 02:54:43;;;;;;;9.38;7.07;;;;;;;;;;5067175;28;20073;-68
2021/08/15 02:57:09;;;;;;;7.25;6.55;;;;;;;;;;5072478;28;20162;-68
2021/08/15 02:59:39;;;;;;;9.52;6.63;;;;;;;;;;5075404;28;20024;-68
2021/08/15 03:02:16;;;;;;;6.95;6.25;;;;;;;;;;5071160;28;20387;-67
2021/08/15 03:04:46;;;;;;;7.18;6.40;;;;;;;;;;5070944;28;20029;-68
2021/08/15 03:07:12;;;;;;;10.95;6.80;;;;;;;;;;5064327;28;20029;-68
2021/08/15 03:09:38;;;;;;;11.32;6.80;;;;;;;;;;5070580;28;20031;-67
2021/08/15 03:12:05;;;;;;;10.85;6.95;;;;;;;;;;5070554;28;20024;-68
2021/08/15 03:14:31;;;;;;;8.95;6.68;;;;;;;;;;5074651;28;20035;-70
2021/08/15 03:16:58;;;;;;;8.68;6.47;;;;;;;;;;5070967;28;20528;-68
2021/08/15 03:19:24;;;;;;;7.65;6.60;;;;;;;;;;5071038;28;20135;-71
2021/08/15 03:21:50;;;;;;;9.52;7.05;;;;;;;;;;5072108;28;20034;-69
2021/08/15 03:24:16;;;;;;;7.15;6.45;;;;;;;;;;5069229;28;20027;-71
2021/08/15 03:26:46;;;;;;;9.27;6.90;;;;;;;;;;5075303;28;20055;-68
2021/08/15 03:29:12;;;;;;;7.93;7.13;;;;;;;;;;5071567;28;20012;-68
2021/08/15 03:31:38;;;;;;;7.30;6.57;;;;;;;;;;5072773;28;20028;-71
2021/08/15 03:34:05;;;;;;;10.38;7.75;;;;;;;;;;5072499;28;20034;-71
2021/08/15 03:36:31;;;;;;;7.93;7.15;;;;;;;;;;5072100;28;20515;-68
2021/08/15 03:38:57;;;;;;;7.43;6.68;;;;;;;;;;5070320;28;20020;-69
2021/08/15 03:41:23;;;;;;;11.20;7.57;;;;;;;;;;5063950;28;20024;-71
2021/08/15 03:43:49;;;;;;;8.60;6.75;;;;;;;;;;5069553;28;20024;-70
2021/08/15 03:46:15;;;;;;;11.05;7.15;;;;;;;;;;5066597;28;20506;-69
2021/08/15 03:48:42;;;;;;;9.02;6.95;;;;;;;;;;5070645;28;20036;-68
2021/08/15 03:51:08;;;;;;;9.45;6.80;;;;;;;;;;5067362;28;20043;-70
2021/08/15 03:53:34;;;;;;;7.70;7.00;;;;;;;;;;5069705;28;20039;-68
2021/08/15 03:56:00;;;;;;;8.13;7.38;;;;;;;;;;5066536;28;20032;-69
2021/08/15 03:58:28;;;;;;;12.52;7.28;;;;;;;;;;5065201;28;20032;-67
2021/08/15 04:00:54;;;;;;;10.25;7.20;;;;;;;;;;5068194;28;20645;-68
2021/08/15 04:03:20;;;;;;;7.72;6.80;;;;;;;;;;5068771;28;20626;-70
2021/08/15 04:05:47;;;;;;;8.85;7.10;;;;;;;;;;5069868;28;20098;-67
2021/08/15 04:08:13;;;;;;;9.35;7.35;;;;;;;;;;5067810;28;20090;-68
2021/08/15 04:10:39;;;;;;;7.47;6.75;;;;;;;;;;5064690;28;20027;-72
2021/08/15 04:13:05;;;;;;;7.13;6.50;;;;;;;;;;5068317;28;20033;-70
2021/08/15 04:15:32;;;;;;;8.82;6.90;;;;;;;;;;5066056;28;20031;-68
2021/08/15 04:17:58;;;;;;;9.88;7.35;;;;;;;;;;5072146;28;20032;-68
2021/08/15 04:20:26;;;;;;;10.65;7.60;;;;;;;;;;5065643;28;20041;-71
2021/08/15 04:22:52;;;;;;;11.30;7.40;;;;;;;;;;5063432;28;20392;-69
2021/08/15 04:25:18;;;;;;;7.78;6.88;;;;;;;;;;5067444;28;20487;-68
2021/08/15 04:27:44;;;;;;;8.70;7.13;;;;;;;;;;5065150;28;20043;-68
2021/08/15 04:30:11;;;;;;;8.40;7.30;;;;;;;;;;5065754;28;20029;-68
2021/08/15 04:32:37;;;;;;;7.82;7.03;;;;;;;;;;5066196;28;20499;-68
2021/08/15 04:35:04;;;;;;;7.85;7.05;;;;;;;;;;5070305;28;20074;-68
2021/08/15 04:37:30;;;;;;;9.57;7.95;;;;;;;;;;5069432;28;20610;-67
2021/08/15 04:39:56;;;;;;;9.88;6.97;;;;;;;;;;5065060;28;20028;-67
2021/08/15 04:42:23;;;;;;;9.68;7.22;;;;;;;;;;5063914;28;20028;-72
2021/08/15 04:44:49;;;;;;;7.22;6.40;;;;;;;;;;5070777;28;20028;-70
2021/08/15 04:47:15;;;;;;;8.00;7.20;;;;;;;;;;5068499;28;20028;-69
2021/08/15 04:49:41;;;;;;;9.95;6.95;;;;;;;;;;5066455;28;20597;-68
2021/08/15 04:52:07;;;;;;;8.15;7.03;;;;;;;;;;5066974;28;20529;-70
2021/08/15 04:54:34;;;;;;;9.15;7.18;;;;;;;;;;5065582;28;20052;-68
2021/08/15 04:57:00;;;;;;;8.82;7.20;;;;;;;;;;5063568;28;20078;-67
2021/08/15 04:59:27;;;;;;;8.52;6.88;;;;;;;;;;5067600;28;20020;-73
2021/08/15 05:01:53;;;;;;;8.63;7.55;;;;;;;;;;5066096;28;20025;-68
2021/08/15 05:04:20;;;;;;;16.13;7.18;;;;;;;;;;5064473;28;20021;-69
2021/08/15 05:06:46;;;;;;;8.77;7.63;;;;;;;;;;5068265;28;20033;-69
2021/08/15 05:09:13;;;;;;;10.00;7.70;;;;;;;;;;5065395;28;21030;-69
2021/08/15 05:11:39;;;;;;;9.18;6.68;;;;;;;;;;5066397;28;20582;-67
2021/08/15 05:14:06;;;;;;;11.40;7.65;;;;;;;;;;5065755;28;20040;-73
2021/08/15 05:16:32;;;;;;;8.50;7.20;;;;;;;;;;5064923;28;20539;-68
2021/08/15 05:18:58;;;;;;;9.77;7.72;;;;;;;;;;5064970;28;20062;-70
2021/08/15 05:21:25;;;;;;;10.13;7.53;;;;;;;;;;5065524;28;20028;-69
2021/08/15 05:23:51;;;;;;;9.25;7.45;;;;;;;;;;5064108;28;20028;-68
2021/08/15 05:26:17;;;;;;;7.70;7.00;;;;;;;;;;5066374;28;20384;-68
2021/08/15 05:28:43;;;;;;;8.52;7.63;;;;;;;;;;5066443;28;20377;-69
2021/08/15 05:31:10;;;;;;;16.13;7.90;;;;;;;;;;5066046;28;20039;-73
2021/08/15 05:33:36;;;;;;;8.60;7.15;;;;;;;;;;5069148;28;20036;-69
2021/08/15 05:36:02;;;;;;;10.68;7.32;;;;;;;;;;5064006;28;20129;-69
2021/08/15 05:38:28;;;;;;;8.10;7.30;;;;;;;;;;5066159;28;20038;-69
2021/08/15 05:40:54;;;;;;;10.75;7.93;;;;;;;;;;5066046;28;20033;-68
2021/08/15 05:43:20;;;;;;;11.30;7.65;;;;;;;;;;5063603;28;20086;-69
2021/08/15 05:45:47;;;;;;;10.32;8.02;;;;;;;;;;5065653;28;20024;-68
2021/08/15 05:48:13;;;;;;;15.25;11.52;;;;;;;;;;5066240;28;20035;-69
2021/08/15 05:50:39;;;;;;;16.98;12.30;;;;;;;;;;5063029;28;20031;-69
2021/08/15 05:53:05;;;;;;;24.92;14.50;;;;;;;;;;5066546;28;20040;-69
2021/08/15 05:55:32;;;;;;;21.20;14.90;;;;;;;;;;5063535;28;20028;-68
2021/08/15 05:57:58;;;;;;;28.10;16.77;;;;;;;;;;5063302;28;20041;-72
2021/08/15 06:00:24;;;;;;;24.38;16.48;;;;;;;;;;5067695;28;20101;-68
2021/08/15 06:02:50;;;;;;;22.98;14.63;;;;;;;;;;5068779;28;20024;-68
2021/08/15 06:05:17;;;;;;;21.45;12.82;;;;;;;;;;5064194;28;20409;-71
2021/08/15 06:07:43;;;;;;;13.93;9.75;;;;;;;;;;5062433;28;20103;-68
2021/08/15 06:10:10;;;;;;;12.30;9.23;;;;;;;;;;5062900;28;20036;-71
2021/08/15 06:12:36;;;;;;;13.05;9.02;;;;;;;;;;5062382;28;20517;-68
2021/08/15 06:15:03;;;;;;;13.38;9.05;;;;;;;;;;5065560;28;20048;-71
2021/08/15 06:17:29;;;;;;;11.90;8.63;;;;;;;;;;5067715;28;20021;-67
2021/08/15 06:19:56;;;;;;;14.35;8.77;;;;;;;;;;5064823;28;20047;-68
2021/08/15 06:22:22;;;;;;;10.20;8.57;;;;;;;;;;5062833;28;20036;-68
2021/08/15 06:24:48;;;;;;;12.60;8.00;;;;;;;;;;5065468;28;20026;-68
2021/08/15 06:27:14;;;;;;;11.73;7.60;;;;;;;;;;5062264;28;20028;-68
2021/08/15 06:29:40;;;;;;;10.05;7.88;;;;;;;;;;5061622;28;20365;-68
2021/08/15 06:32:06;;;;;;;8.75;7.85;;;;;;;;;;5065617;28;20483;-68
2021/08/15 06:34:33;;;;;;;12.30;7.60;;;;;;;;;;5061941;28;20063;-69
2021/08/15 06:36:59;;;;;;;10.35;7.70;;;;;;;;;;5061712;28;20036;-68
2021/08/15 06:39:25;;;;;;;9.38;7.75;;;;;;;;;;5065703;28;20056;-71
2021/08/15 06:41:51;;;;;;;9.68;7.32;;;;;;;;;;5067843;28;20063;-68
2021/08/15 06:44:18;;;;;;;7.97;6.50;;;;;;;;;;5064928;28;20016;-71
2021/08/15 06:46:44;;;;;;;11.48;7.28;;;;;;;;;;5062996;28;20024;-69
2021/08/15 06:49:10;;;;;;;9.93;7.40;;;;;;;;;;5061573;28;20039;-68
2021/08/15 06:51:37;;;;;;;16.92;7.72;;;;;;;;;;5062256;28;20036;-70
2021/08/15 06:54:03;;;;;;;7.95;7.15;;;;;;;;;;5063215;28;20032;-68
2021/08/15 06:56:29;;;;;;;10.52;7.05;;;;;;;;;;5063981;28;20024;-69
2021/08/15 06:58:55;;;;;;;8.25;7.05;;;;;;;;;;5061418;28;20033;-68
2021/08/15 07:01:21;;;;;;;8.38;6.93;;;;;;;;;;5062816;28;20032;-68
2021/08/15 07:03:48;;;;;;;8.32;6.38;;;;;;;;;;5062744;28;20036;-69
2021/08/15 07:06:14;;;;;;;8.05;6.68;;;;;;;;;;5060804;28;20048;-69
2021/08/15 07:08:40;;;;;;;9.02;7.20;;;;;;;;;;5063912;28;20023;-68
2021/08/15 07:11:06;;;;;;;7.95;6.80;;;;;;;;;;5061007;28;20099;-68
2021/08/15 07:13:33;;;;;;;10.00;6.40;;;;;;;;;;5065334;28;20119;-70
2021/08/15 07:16:02;;;;;;;9.02;6.82;;;;;;;;;;5068514;28;20469;-73
2021/08/15 07:18:29;;;;;;;11.95;7.38;;;;;;;;;;5062711;28;20064;-72
2021/08/15 07:20:58;;;;;;;9.43;6.88;;;;;;;;;;5060356;28;20032;-69
2021/08/15 07:23:25;;;;;;;7.82;6.43;;;;;;;;;;5062822;28;20521;-68
2021/08/15 07:25:51;;;;;;;8.02;7.30;;;;;;;;;;5064636;28;20024;-75
2021/08/15 07:28:17;;;;;;;8.48;7.13;;;;;;;;;;5066444;28;20025;-70
2021/08/15 07:30:43;;;;;;;9.13;6.00;;;;;;;;;;5066264;28;20017;-70
2021/08/15 07:33:09;;;;;;;8.80;6.68;;;;;;;;;;5066494;28;20033;-70
2021/08/15 07:35:36;;;;;;;7.50;6.72;;;;;;;;;;5070015;28;20027;-70
2021/08/15 07:38:03;;;;;;;7.07;6.38;;;;;;;;;;5065697;28;20415;-70
2021/08/15 07:40:29;;;;;;;10.98;7.93;;;;;;;;;;5067590;28;20023;-70
2021/08/15 07:42:56;;;;;;;7.35;6.65;;;;;;;;;;5067334;28;20111;-71
2021/08/15 07:45:23;;;;;;;7.78;6.97;;;;;;;;;;5069113;28;20052;-70
2021/08/15 07:47:49;;;;;;;8.23;7.00;;;;;;;;;;5062062;28;20017;-70
2021/08/15 07:50:16;;;;;;;8.27;6.90;;;;;;;;;;5063472;28;20119;-70
2021/08/15 07:52:42;;;;;;;11.00;7.57;;;;;;;;;;5062876;28;20055;-70
2021/08/15 07:55:09;;;;;;;10.98;7.35;;;;;;;;;;5062910;28;20032;-70
2021/08/15 07:57:35;;;;;;;8.32;7.38;;;;;;;;;;5063696;28;20028;-70
2021/08/15 08:00:01;;;;;;;9.50;7.28;;;;;;;;;;5065787;28;20123;-70
2021/08/15 08:02:27;;;;;;;8.95;7.20;;;;;;;;;;5065024;28;20052;-70
2021/08/15 08:04:53;;;;;;;7.38;6.68;;;;;;;;;;5065437;28;20028;-70
2021/08/15 08:07:22;;;;;;;8.07;6.70;;;;;;;;;;5070698;28;20206;-69
2021/08/15 08:09:48;;;;;;;8.43;7.05;;;;;;;;;;5069343;28;20020;-70
2021/08/15 08:12:15;;;;;;;7.82;6.78;;;;;;;;;;5069146;28;20075;-70
2021/08/15 08:14:41;;;;;;;9.82;7.93;;;;;;;;;;5067395;28;20127;-70
2021/08/15 08:17:08;;;;;;;8.38;7.47;;;;;;;;;;5068616;28;20017;-70
2021/08/15 08:19:34;;;;;;;7.75;6.95;;;;;;;;;;5066679;28;20047;-70
2021/08/15 08:22:00;;;;;;;9.10;6.55;;;;;;;;;;5066897;28;20508;-70
2021/08/15 08:24:26;;;;;;;10.95;7.65;;;;;;;;;;5062237;28;20619;-70
2021/08/15 08:26:52;;;;;;;10.73;7.65;;;;;;;;;;5068681;28;20498;-70
2021/08/15 08:29:19;;;;;;;7.32;6.63;;;;;;;;;;5065417;28;20416;-70
2021/08/15 08:31:45;;;;;;;9.50;7.72;;;;;;;;;;5068397;28;20499;-70
2021/08/15 08:34:11;;;;;;;8.18;7.38;;;;;;;;;;5063836;28;20091;-70
2021/08/15 08:36:37;;;;;;;8.52;7.47;;;;;;;;;;5067346;28;20018;-70
2021/08/15 08:39:03;;;;;;;9.23;7.35;;;;;;;;;;5066199;28;20032;-70
2021/08/15 08:41:30;;;;;;;8.02;7.22;;;;;;;;;;5065298;28;20614;-70
2021/08/15 08:43:57;;;;;;;7.72;7.03;;;;;;;;;;5066611;28;20781;-70
2021/08/15 08:46:24;;;;;;;9.10;7.32;;;;;;;;;;5062717;28;20020;-70
2021/08/15 08:48:51;;;;;;;9.27;7.55;;;;;;;;;;5066190;28;20025;-69
2021/08/15 08:51:21;;;;;;;9.88;7.22;;;;;;;;;;5069840;28;20017;-70
2021/08/15 08:53:49;;;;;;;7.72;6.85;;;;;;;;;;5068030;28;20036;-69
2021/08/15 08:56:16;;;;;;;8.27;7.13;;;;;;;;;;5069243;28;20492;-70
2021/08/15 08:58:42;;;;;;;9.00;8.07;;;;;;;;;;5066342;28;20032;-70
2021/08/15 09:01:12;;;;;;;11.43;7.65;;;;;;;;;;5063387;28;20024;-70
2021/08/15 09:03:39;;;;;;;11.52;7.35;;;;;;;;;;5064282;28;20044;-70
2021/08/15 09:06:17;;;;;;;10.68;7.85;;;;;;;;;;5065532;28;20025;-70
2021/08/15 09:08:43;;;;;;;11.18;7.80;;;;;;;;;;5062422;28;20031;-71
2021/08/15 09:11:30;;;;;;;10.68;7.22;;;;;;;;;;5070855;28;20023;-70
2021/08/15 09:14:06;;;;;;;9.77;7.95;;;;;;;;;;5063347;28;20464;-70
2021/08/15 09:16:51;;;;;;;8.13;7.28;;;;;;;;;;5071030;28;20028;-70
2021/08/15 09:19:26;;;;;;;9.35;7.72;;;;;;;;;;5063999;28;20052;-69
2021/08/15 09:21:53;;;;;;;7.82;7.10;;;;;;;;;;5064937;28;20029;-69
2021/08/15 09:24:19;;;;;;;7.95;7.18;;;;;;;;;;5065850;28;20034;-69
2021/08/15 09:26:57;;;;;;;12.52;7.38;;;;;;;;;;5068688;28;20024;-70
2021/08/15 09:29:23;;;;;;;10.20;7.03;;;;;;;;;;5063171;28;20029;-69
2021/08/15 09:31:49;;;;;;;9.52;8.02;;;;;;;;;;5061670;28;20526;-69
2021/08/15 09:34:29;;;;;;;9.70;7.63;;;;;;;;;;5063185;28;20408;-70
2021/08/15 09:36:55;;;;;;;9.60;7.38;;;;;;;;;;5064572;28;20016;-70
2021/08/15 09:39:34;;;;;;;8.30;7.53;;;;;;;;;;5063104;28;20012;-69
2021/08/15 09:42:01;;;;;;;8.15;7.00;;;;;;;;;;5063236;28;20031;-69
2021/08/15 09:44:31;;;;;;;9.20;7.57;;;;;;;;;;5062460;28;20470;-70
2021/08/15 09:47:11;;;;;;;9.57;7.75;;;;;;;;;;5064577;28;20043;-70
2021/08/15 09:49:37;;;;;;;9.70;7.32;;;;;;;;;;5067895;28;21245;-70
2021/08/15 09:52:04;;;;;;;8.88;7.57;;;;;;;;;;5067880;28;20028;-70
2021/08/15 09:54:31;;;;;;;7.97;7.28;;;;;;;;;;5066674;28;20047;-70
2021/08/15 09:56:57;;;;;;;9.38;7.57;;;;;;;;;;5067432;28;20066;-71
2021/08/15 09:59:24;;;;;;;9.38;7.18;;;;;;;;;;5073108;28;20039;-72
2021/08/15 10:01:54;;;;;;;9.10;7.65;;;;;;;;;;5070219;28;20020;-73
2021/08/15 10:04:21;;;;;;;10.63;7.55;;;;;;;;;;5068762;28;20118;-72
2021/08/15 10:06:48;;;;;;;10.18;7.30;;;;;;;;;;5070857;28;20030;-72
2021/08/15 10:09:15;;;;;;;8.27;7.47;;;;;;;;;;5070828;28;20421;-72
2021/08/15 10:11:42;;;;;;;8.32;7.50;;;;;;;;;;5070619;28;20032;-72
2021/08/15 10:14:09;;;;;;;7.65;6.80;;;;;;;;;;5067195;28;20032;-72
2021/08/15 10:16:40;;;;;;;9.70;7.45;;;;;;;;;;5067940;28;20520;-68
2021/08/15 10:19:10;;;;;;;7.28;6.57;;;;;;;;;;5063897;28;20044;-67
2021/08/15 10:21:44;;;;;;;7.72;7.03;;;;;;;;;;5073641;28;20020;-68
2021/08/15 10:24:11;;;;;;;7.85;7.03;;;;;;;;;;5066421;28;20495;-68
2021/08/15 10:26:39;;;;;;;9.57;7.47;;;;;;;;;;5067007;28;20036;-68
2021/08/15 10:29:26;;;;;;;9.82;7.50;;;;;;;;;;5064224;28;20013;-68
2021/08/15 10:32:10;;;;;;;7.97;7.28;;;;;;;;;;5070593;28;20055;-68
2021/08/15 10:34:52;;;;;;;9.00;7.47;;;;;;;;;;5069447;28;20036;-68
2021/08/15 10:37:38;;;;;;;7.90;7.10;;;;;;;;;;5068988;28;20052;-67
2021/08/15 10:40:04;;;;;;;8.60;7.43;;;;;;;;;;5070849;28;20033;-69
2021/08/15 10:42:39;;;;;;;11.13;7.25;;;;;;;;;;5068964;28;20017;-68
2021/08/15 10:45:07;;;;;;;9.68;7.68;;;;;;;;;;5069067;28;20381;-68
2021/08/15 10:47:33;;;;;;;10.00;7.18;;;;;;;;;;5065065;28;20024;-68
2021/08/15 10:50:03;;;;;;;10.82;8.52;;;;;;;;;;5065743;28;20120;-68
2021/08/15 10:52:39;;;;;;;10.63;7.93;;;;;;;;;;5069032;28;20024;-69
2021/08/15 10:55:14;;;;;;;9.10;6.97;;;;;;;;;;5065031;28;20380;-71
2021/08/15 10:57:46;;;;;;;8.20;7.22;;;;;;;;;;5070708;28;20048;-68
2021/08/15 11:00:31;;;;;;;8.48;7.68;;;;;;;;;;5066536;28;20028;-68
2021/08/15 11:02:58;;;;;;;11.00;7.68;;;;;;;;;;5070099;28;20024;-68
2021/08/15 11:05:37;;;;;;;11.07;7.97;;;;;;;;;;5066032;28;20027;-68
2021/08/15 11:08:03;;;;;;;8.38;7.38;;;;;;;;;;5066738;28;20024;-68
2021/08/15 11:10:53;;;;;;;7.43;6.72;;;;;;;;;;5066564;28;20477;-68
2021/08/15 11:13:20;;;;;;;8.25;7.30;;;;;;;;;;5058438;28;20041;-68
2021/08/15 11:15:46;;;;;;;7.75;7.00;;;;;;;;;;5066828;28;20552;-68
2021/08/15 11:18:13;;;;;;;11.40;7.85;;;;;;;;;;5069951;28;20055;-68
2021/08/15 11:20:39;;;;;;;10.98;7.57;;;;;;;;;;5066492;28;20484;-68
2021/08/15 11:23:13;;;;;;;9.80;7.57;;;;;;;;;;5069041;28;20039;-68
2021/08/15 11:25:39;;;;;;;9.73;8.30;;;;;;;;;;5063589;28;20523;-68
2021/08/15 11:28:06;;;;;;;10.50;7.47;;;;;;;;;;5068265;28;20039;-68
2021/08/15 11:30:32;;;;;;;12.35;8.38;;;;;;;;;;5066542;28;20134;-68
2021/08/15 11:33:00;;;;;;;9.68;8.38;;;;;;;;;;5072036;28;20387;-68
2021/08/15 11:35:33;;;;;;;9.10;8.20;;;;;;;;;;5073618;28;20027;-67
2021/08/15 11:38:00;;;;;;;9.43;8.15;;;;;;;;;;5071035;28;20031;-68
2021/08/15 11:40:27;;;;;;;11.35;7.95;;;;;;;;;;5070784;28;20013;-68
2021/08/15 11:43:10;;;;;;;9.30;8.35;;;;;;;;;;5071450;28;20020;-67
2021/08/15 11:45:40;;;;;;;9.73;7.82;;;;;;;;;;5072071;28;20032;-68
2021/08/15 11:48:14;;;;;;;10.82;8.40;;;;;;;;;;5072247;28;20121;-67
2021/08/15 11:50:48;;;;;;;8.88;7.95;;;;;;;;;;5073078;28;20031;-68
2021/08/15 11:53:20;;;;;;;11.77;7.80;;;;;;;;;;5071861;28;20047;-69
2021/08/15 11:55:47;;;;;;;10.25;8.68;;;;;;;;;;5073086;28;20031;-68
2021/08/15 11:58:13;;;;;;;9.60;8.23;;;;;;;;;;5068536;28;20104;-68
2021/08/15 12:00:39;;;;;;;9.68;8.77;;;;;;;;;;5073354;28;20031;-68
2021/08/15 12:03:06;;;;;;;12.88;9.43;;;;;;;;;;5070695;28;20032;-72
2021/08/15 12:05:34;;;;;;;10.73;9.63;;;;;;;;;;5071134;28;20032;-68
2021/08/15 12:08:08;;;;;;;12.05;9.88;;;;;;;;;;5071685;28;20468;-69
2021/08/15 12:10:42;;;;;;;10.95;9.82;;;;;;;;;;5068439;28;20106;-68
2021/08/15 12:13:09;;;;;;;9.23;8.43;;;;;;;;;;5074172;28;20123;-70
2021/08/15 12:15:35;;;;;;;12.13;8.48;;;;;;;;;;5069583;28;20024;-68
2021/08/15 12:18:01;;;;;;;12.98;8.30;;;;;;;;;;5072366;28;20028;-68
2021/08/15 12:20:28;;;;;;;11.02;8.73;;;;;;;;;;5070518;28;20036;-68
2021/08/15 12:22:54;;;;;;;11.95;8.70;;;;;;;;;;5071628;28;20262;-69
2021/08/15 12:25:22;;;;;;;11.20;9.45;;;;;;;;;;5073115;28;20028;-68
2021/08/15 12:27:49;;;;;;;11.75;8.82;;;;;;;;;;5070989;28;20432;-69
2021/08/15 12:30:30;;;;;;;13.35;9.65;;;;;;;;;;5070144;28;20016;-69
2021/08/15 12:32:56;;;;;;;;;;;;;;;;;;5071264;28;20032;-69
2021/08/15 12:35:26;;;;;;;9.15;8.20;;;;;;;;;;5072205;28;19936;-68
2021/08/15 12:37:56;;;;;;;11.15;8.15;;;;;;;;;;5070960;28;20123;-68
2021/08/15 12:40:29;;;;;;;9.98;8.07;;;;;;;;;;5072413;28;20387;-68
2021/08/15 12:42:57;;;;;;;13.40;9.43;;;;;;;;;;5068364;28;20067;-69
2021/08/15 12:45:31;;;;;;;10.70;8.55;;;;;;;;;;5071654;28;20028;-69
2021/08/15 12:48:00;;;;;;;9.38;7.70;;;;;;;;;;5069757;28;20031;-68
2021/08/15 12:50:26;;;;;;;10.43;7.03;;;;;;;;;;5072208;28;20167;-68
2021/08/15 12:53:03;;;;;;;12.93;10.45;;;;;;;;;;5070826;28;20028;-68
2021/08/15 12:55:29;;;;;;;10.43;8.43;;;;;;;;;;5069635;28;20055;-68
2021/08/15 12:58:12;;;;;;;11.05;7.68;;;;;;;;;;5072793;28;20697;-68
2021/08/15 13:00:39;;;;;;;8.15;7.03;;;;;;;;;;5070735;28;20030;-70
2021/08/15 13:03:06;;;;;;;8.90;7.20;;;;;;;;;;5069081;28;20028;-69
2021/08/15 13:05:33;;;;;;;9.40;6.82;;;;;;;;;;5070162;28;20024;-69
2021/08/15 13:08:00;;;;;;;10.68;7.80;;;;;;;;;;5070868;28;20028;-70
2021/08/15 13:10:26;;;;;;;8.88;7.25;;;;;;;;;;5069765;28;20056;-68
2021/08/15 13:12:53;;;;;;;8.10;6.93;;;;;;;;;;5072643;28;20428;-72
2021/08/15 13:15:20;;;;;;;10.80;6.93;;;;;;;;;;5067298;28;20104;-68
2021/08/15 13:17:47;;;;;;;11.00;6.60;;;;;;;;;;5070213;28;20464;-68
2021/08/15 13:20:15;;;;;;;7.32;6.20;;;;;;;;;;5069121;28;20507;-69
2021/08/15 13:22:42;;;;;;;9.05;7.20;;;;;;;;;;5070900;28;20613;-68
2021/08/15 13:25:09;;;;;;;7.88;6.38;;;;;;;;;;5070775;28;20077;-68
2021/08/15 13:27:35;;;;;;;8.77;6.10;;;;;;;;;;5070009;28;20025;-68
2021/08/15 13:30:01;;;;;;;10.18;6.13;;;;;;;;;;5072984;28;20503;-69
2021/08/15 13:32:27;;;;;;;7.35;6.47;;;;;;;;;;5065173;28;20119;-69
2021/08/15 13:34:55;;;;;;;7.15;6.35;;;;;;;;;;5071866;28;20044;-69
2021/08/15 13:37:22;;;;;;;9.60;6.47;;;;;;;;;;5067640;28;20033;-68
2021/08/15 13:39:58;;;;;;;8.52;6.28;;;;;;;;;;5071633;28;20039;-70
2021/08/15 13:42:25;;;;;;;7.03;6.18;;;;;;;;;;5069015;28;20040;-68
2021/08/15 13:44:51;;;;;;;6.40;5.80;;;;;;;;;;5068684;28;20031;-70
2021/08/15 13:47:18;;;;;;;6.82;5.93;;;;;;;;;;5072401;28;20024;-68
2021/08/15 13:49:44;;;;;;;15.00;6.65;;;;;;;;;;5068398;28;20016;-68
2021/08/15 13:52:11;;;;;;;7.15;6.22;;;;;;;;;;5071039;28;20786;-69
2021/08/15 13:54:37;;;;;;;9.63;6.32;;;;;;;;;;5069006;28;20549;-68
2021/08/15 13:57:03;;;;;;;7.25;6.10;;;;;;;;;;5068246;28;20387;-68
2021/08/15 13:59:30;;;;;;;8.13;5.95;;;;;;;;;;5071258;28;20480;-68
2021/08/15 14:01:56;;;;;;;8.27;6.20;;;;;;;;;;5067602;28;20032;-68
2021/08/15 14:04:22;;;;;;;10.02;6.55;;;;;;;;;;5071233;28;20119;-69
2021/08/15 14:06:48;;;;;;;9.48;6.53;;;;;;;;;;5067780;28;20207;-68
2021/08/15 14:09:14;;;;;;;8.10;6.63;;;;;;;;;;5071484;28;20020;-68
2021/08/15 14:11:42;;;;;;;7.18;6.47;;;;;;;;;;5068702;28;20024;-68
2021/08/15 14:14:09;;;;;;;6.32;5.75;;;;;;;;;;5067266;28;20407;-68
2021/08/15 14:16:35;;;;;;;7.13;6.43;;;;;;;;;;5068126;28;20051;-69
2021/08/15 14:19:02;;;;;;;9.00;6.90;;;;;;;;;;5066095;28;20048;-72
2021/08/15 14:21:29;;;;;;;7.53;6.10;;;;;;;;;;5072284;28;20103;-69
2021/08/15 14:23:56;;;;;;;7.60;6.90;;;;;;;;;;5068397;28;20044;-68
2021/08/15 14:26:23;;;;;;;10.98;6.85;;;;;;;;;;5069361;28;20429;-68
2021/08/15 14:28:50;;;;;;;7.65;6.80;;;;;;;;;;5070687;28;20477;-68
2021/08/15 14:31:16;;;;;;;10.25;7.38;;;;;;;;;;5067552;28;20040;-68
2021/08/15 14:33:42;;;;;;;7.57;6.85;;;;;;;;;;5068520;28;20090;-68
2021/08/15 14:36:09;;;;;;;8.63;7.30;;;;;;;;;;5068451;28;20070;-68
2021/08/15 14:38:35;;;;;;;8.10;7.30;;;;;;;;;;5069448;28;20048;-68
2021/08/15 14:41:03;;;;;;;8.05;7.32;;;;;;;;;;5068394;28;20028;-69